createdAt,value
2018-04-16T00:00:30.675Z,16.10
2018-04-16T00:01:29.828Z,15.70
2018-04-16T00:03:24.281Z,15.00
2018-04-16T00:04:23.497Z,15.40
2018-04-16T00:06:17.073Z,14.90
2018-04-16T00:07:17.044Z,15.90
2018-04-16T00:09:10.669Z,15.70
2018-04-16T00:10:10.636Z,15.90
2018-04-16T00:12:04.272Z,16.00
2018-04-16T00:13:04.239Z,15.70
2018-04-16T00:14:57.974Z,16.20
2018-04-16T00:15:57.959Z,16.50
2018-04-16T00:17:51.579Z,16.80
2018-04-16T00:18:51.551Z,16.20
2018-04-16T00:20:45.980Z,16.60
2018-04-16T00:21:45.195Z,16.50
2018-04-16T00:23:38.718Z,17.00
2018-04-16T00:24:38.683Z,16.70
2018-04-16T00:26:32.358Z,17.20
2018-04-16T00:27:32.314Z,16.90
2018-04-16T00:29:25.831Z,16.60
2018-04-16T00:30:25.817Z,17.00
2018-04-16T00:32:20.248Z,17.10
2018-04-16T00:33:19.380Z,16.70
2018-04-16T00:35:13.804Z,16.70
2018-04-16T00:36:13.015Z,16.20
2018-04-16T00:38:06.657Z,17.70
2018-04-16T00:39:06.626Z,16.70
2018-04-16T00:41:00.242Z,17.00
2018-04-16T00:42:00.211Z,17.70
2018-04-16T00:43:53.788Z,15.90
2018-04-16T00:44:53.777Z,16.50
2018-04-16T00:46:48.214Z,18.10
2018-04-16T00:47:47.437Z,18.80
2018-04-16T00:49:41.138Z,17.00
2018-04-16T00:50:41.098Z,17.50
2018-04-16T00:52:35.535Z,17.00
2018-04-16T00:53:34.707Z,18.50
2018-04-16T00:55:28.364Z,18.40
2018-04-16T00:56:28.339Z,18.40
2018-04-16T00:58:21.877Z,18.10
2018-04-16T00:59:21.827Z,18.40
2018-04-16T01:01:16.265Z,18.30
2018-04-16T01:02:15.496Z,17.70
2018-04-16T01:04:09.149Z,18.00
2018-04-16T01:05:09.125Z,17.50
2018-04-16T01:07:03.548Z,17.70
2018-04-16T01:08:02.634Z,18.10
2018-04-16T01:09:56.326Z,18.20
2018-04-16T01:10:56.277Z,18.20
2018-04-16T01:12:49.956Z,17.70
2018-04-16T01:13:49.898Z,17.90
2018-04-16T01:14:49.897Z,18.20
2018-04-16T01:15:49.888Z,17.80
2018-04-16T01:16:49.880Z,18.00
2018-04-16T01:17:49.877Z,18.00
2018-04-16T01:18:49.877Z,18.20
2018-04-16T01:19:49.860Z,18.40
2018-04-16T01:20:49.854Z,18.00
2018-04-16T01:21:49.847Z,18.30
2018-04-16T01:22:49.842Z,18.10
2018-04-16T01:23:49.835Z,17.90
2018-04-16T01:24:49.826Z,18.40
2018-04-16T01:25:49.828Z,18.80
2018-04-16T01:26:49.814Z,18.50
2018-04-16T01:27:49.810Z,18.20
2018-04-16T01:28:49.802Z,18.80
2018-04-16T01:29:49.795Z,18.90
2018-04-16T01:30:49.788Z,18.40
2018-04-16T01:31:49.781Z,19.60
2018-04-16T01:32:49.777Z,19.20
2018-04-16T01:33:49.767Z,19.10
2018-04-16T01:34:49.763Z,19.50
2018-04-16T01:35:49.761Z,19.80
2018-04-16T01:36:49.749Z,19.40
2018-04-16T01:37:49.745Z,20.60
2018-04-16T01:38:49.733Z,20.10
2018-04-16T01:39:49.728Z,19.50
2018-04-16T01:40:49.722Z,19.40
2018-04-16T01:41:49.715Z,19.40
2018-04-16T01:42:49.710Z,20.10
2018-04-16T01:43:49.702Z,19.70
2018-04-16T01:44:49.691Z,19.10
2018-04-16T01:45:49.686Z,20.80
2018-04-16T01:46:49.681Z,19.50
2018-04-16T01:47:49.677Z,19.40
2018-04-16T01:48:49.668Z,20.90
2018-04-16T01:49:49.662Z,19.90
2018-04-16T01:50:49.655Z,19.70
2018-04-16T01:51:49.646Z,20.20
2018-04-16T01:52:49.637Z,20.70
2018-04-16T01:53:49.640Z,20.20
2018-04-16T01:54:49.628Z,19.70
2018-04-16T01:55:49.618Z,20.10
2018-04-16T01:56:49.612Z,20.20
2018-04-16T01:57:49.606Z,22.20
2018-04-16T01:58:49.597Z,20.70
2018-04-16T01:59:49.591Z,21.60
2018-04-16T02:00:49.586Z,20.60
2018-04-16T02:01:49.579Z,20.80
2018-04-16T02:02:49.570Z,21.00
2018-04-16T02:03:49.569Z,21.00
2018-04-16T02:04:49.555Z,20.10
2018-04-16T02:05:49.566Z,20.80
2018-04-16T02:06:49.549Z,21.00
2018-04-16T02:07:49.536Z,20.80
2018-04-16T02:08:49.530Z,20.80
2018-04-16T02:09:49.523Z,21.80
2018-04-16T02:10:49.515Z,20.50
2018-04-16T02:11:49.504Z,20.80
2018-04-16T02:12:49.503Z,20.60
2018-04-16T02:13:49.493Z,19.80
2018-04-16T02:14:49.485Z,21.20
2018-04-16T02:15:49.483Z,21.40
2018-04-16T02:16:49.471Z,19.60
2018-04-16T02:17:49.466Z,20.00
2018-04-16T02:18:49.460Z,20.90
2018-04-16T02:19:49.465Z,20.80
2018-04-16T02:20:49.441Z,20.70
2018-04-16T02:21:49.439Z,21.10
2018-04-16T02:22:49.431Z,21.10
2018-04-16T02:23:49.420Z,21.00
2018-04-16T02:24:49.423Z,21.50
2018-04-16T02:25:49.413Z,20.90
2018-04-16T02:26:49.399Z,21.00
2018-04-16T02:27:49.394Z,19.80
2018-04-16T02:28:49.387Z,20.30
2018-04-16T02:29:49.385Z,20.80
2018-04-16T02:30:49.376Z,20.90
2018-04-16T02:31:49.366Z,20.50
2018-04-16T02:32:49.359Z,21.70
2018-04-16T02:33:49.349Z,20.60
2018-04-16T02:34:49.346Z,21.00
2018-04-16T02:35:49.347Z,21.50
2018-04-16T02:36:49.334Z,21.80
2018-04-16T02:37:49.331Z,20.50
2018-04-16T02:38:49.322Z,21.10
2018-04-16T02:39:49.315Z,21.60
2018-04-16T02:40:49.312Z,20.60
2018-04-16T02:41:49.296Z,21.60
2018-04-16T02:42:49.292Z,22.30
2018-04-16T02:43:49.286Z,20.70
2018-04-16T02:44:49.285Z,21.60
2018-04-16T02:45:49.270Z,22.10
2018-04-16T02:46:49.259Z,21.90
2018-04-16T02:47:49.253Z,22.00
2018-04-16T02:48:49.246Z,20.80
2018-04-16T02:49:49.243Z,21.50
2018-04-16T02:50:49.243Z,20.50
2018-04-16T02:51:49.230Z,20.50
2018-04-16T02:52:49.223Z,21.60
2018-04-16T02:53:49.216Z,21.20
2018-04-16T02:54:49.223Z,20.30
2018-04-16T02:55:49.200Z,21.00
2018-04-16T02:56:49.192Z,20.90
2018-04-16T02:57:49.187Z,20.00
2018-04-16T02:58:49.184Z,20.90
2018-04-16T02:59:49.175Z,22.00
2018-04-16T03:00:49.163Z,20.90
2018-04-16T03:01:49.153Z,21.60
2018-04-16T03:02:49.147Z,20.20
2018-04-16T03:03:49.140Z,22.20
2018-04-16T03:04:49.139Z,21.20
2018-04-16T03:05:49.129Z,20.90
2018-04-16T03:06:49.116Z,21.40
2018-04-16T03:07:49.111Z,21.40
2018-04-16T03:08:49.111Z,21.40
2018-04-16T03:09:49.101Z,21.90
2018-04-16T03:10:49.095Z,20.80
2018-04-16T03:11:49.087Z,20.90
2018-04-16T03:12:49.080Z,21.60
2018-04-16T03:13:49.071Z,21.80
2018-04-16T03:14:49.065Z,21.30
2018-04-16T03:15:49.056Z,21.20
2018-04-16T03:16:49.058Z,21.50
2018-04-16T03:17:49.043Z,22.10
2018-04-16T03:18:49.038Z,21.10
2018-04-16T03:19:49.029Z,21.30
2018-04-16T03:20:49.017Z,21.80
2018-04-16T03:21:49.016Z,22.00
2018-04-16T03:22:49.003Z,22.00
2018-04-16T03:23:49.003Z,21.60
2018-04-16T03:24:48.992Z,20.20
2018-04-16T03:25:48.987Z,21.50
2018-04-16T03:26:48.976Z,20.70
2018-04-16T03:27:48.973Z,21.10
2018-04-16T03:28:48.964Z,22.50
2018-04-16T03:29:48.957Z,21.80
2018-04-16T03:30:48.955Z,23.50
2018-04-16T03:31:48.945Z,23.00
2018-04-16T03:32:48.937Z,22.60
2018-04-16T03:33:48.928Z,22.80
2018-04-16T03:34:48.921Z,22.00
2018-04-16T03:35:48.914Z,23.00
2018-04-16T03:36:48.910Z,23.10
2018-04-16T03:37:48.896Z,21.60
2018-04-16T03:38:48.893Z,22.70
2018-04-16T03:39:48.884Z,23.00
2018-04-16T03:40:48.877Z,24.80
2018-04-16T03:41:48.866Z,24.00
2018-04-16T03:42:48.860Z,24.00
2018-04-16T03:43:48.858Z,24.00
2018-04-16T03:44:48.849Z,24.30
2018-04-16T03:45:48.842Z,24.50
2018-04-16T03:46:48.831Z,25.00
2018-04-16T03:47:48.829Z,24.50
2018-04-16T03:48:48.819Z,25.30
2018-04-16T03:49:48.807Z,23.90
2018-04-16T03:50:48.798Z,23.40
2018-04-16T03:51:48.804Z,24.20
2018-04-16T03:52:48.787Z,24.60
2018-04-16T03:53:48.781Z,25.00
2018-04-16T03:54:48.776Z,25.40
2018-04-16T03:55:48.763Z,23.80
2018-04-16T03:56:48.758Z,24.80
2018-04-16T03:57:48.748Z,24.50
2018-04-16T03:58:48.762Z,24.50
2018-04-16T03:59:48.735Z,24.00
2018-04-16T04:00:48.729Z,25.30
2018-04-16T04:01:48.718Z,23.60
2018-04-16T04:02:48.712Z,24.20
2018-04-16T04:03:48.708Z,24.80
2018-04-16T04:04:48.694Z,26.20
2018-04-16T04:05:48.694Z,25.20
2018-04-16T04:06:48.685Z,25.70
2018-04-16T04:07:48.677Z,27.00
2018-04-16T04:08:48.667Z,27.10
2018-04-16T04:09:48.657Z,25.60
2018-04-16T04:10:48.651Z,25.40
2018-04-16T04:11:48.644Z,25.10
2018-04-16T04:12:48.645Z,26.30
2018-04-16T04:13:48.632Z,25.70
2018-04-16T04:14:48.624Z,27.00
2018-04-16T04:15:48.619Z,25.90
2018-04-16T04:16:48.603Z,26.70
2018-04-16T04:17:48.598Z,27.30
2018-04-16T04:18:48.590Z,26.10
2018-04-16T04:19:48.586Z,27.20
2018-04-16T04:20:48.576Z,26.80
2018-04-16T04:21:48.570Z,27.00
2018-04-16T04:22:48.562Z,27.90
2018-04-16T04:23:48.580Z,26.10
2018-04-16T04:24:48.549Z,26.70
2018-04-16T04:25:48.540Z,26.60
2018-04-16T04:26:48.533Z,26.70
2018-04-16T04:27:48.527Z,26.40
2018-04-16T04:28:48.517Z,27.10
2018-04-16T04:29:48.505Z,26.20
2018-04-16T04:30:48.500Z,25.80
2018-04-16T04:31:48.495Z,26.60
2018-04-16T04:32:48.488Z,25.50
2018-04-16T04:33:48.480Z,26.40
2018-04-16T04:34:48.475Z,26.50
2018-04-16T04:35:48.465Z,25.60
2018-04-16T04:36:48.456Z,26.20
2018-04-16T04:37:48.450Z,27.20
2018-04-16T04:38:48.442Z,29.20
2018-04-16T04:39:48.436Z,28.60
2018-04-16T04:40:48.427Z,27.40
2018-04-16T04:41:48.420Z,27.60
2018-04-16T04:42:48.416Z,27.60
2018-04-16T04:43:48.405Z,26.60
2018-04-16T04:44:48.402Z,26.70
2018-04-16T04:45:48.387Z,26.60
2018-04-16T04:46:48.381Z,26.60
2018-04-16T04:47:48.374Z,26.00
2018-04-16T04:48:48.367Z,25.80
2018-04-16T04:49:48.395Z,26.40
2018-04-16T04:50:48.348Z,26.30
2018-04-16T04:51:48.340Z,25.00
2018-04-16T04:52:48.337Z,26.00
2018-04-16T04:53:48.328Z,24.90
2018-04-16T04:54:48.320Z,25.50
2018-04-16T04:55:48.318Z,25.10
2018-04-16T04:56:48.302Z,25.70
2018-04-16T04:57:48.293Z,26.00
2018-04-16T04:58:48.292Z,26.20
2018-04-16T04:59:48.292Z,26.80
2018-04-16T05:00:48.279Z,24.80
2018-04-16T05:01:48.268Z,25.50
2018-04-16T05:02:48.260Z,25.00
2018-04-16T05:03:48.252Z,25.00
2018-04-16T05:04:48.242Z,24.70
2018-04-16T05:05:48.232Z,25.50
2018-04-16T05:06:48.226Z,24.20
2018-04-16T05:07:48.225Z,24.40
2018-04-16T05:08:48.212Z,24.10
2018-04-16T05:09:48.208Z,24.10
2018-04-16T05:10:48.198Z,24.30
2018-04-16T05:11:48.186Z,23.00
2018-04-16T05:12:48.179Z,23.60
2018-04-16T05:13:48.171Z,23.40
2018-04-16T05:14:48.175Z,23.80
2018-04-16T05:15:48.161Z,23.40
2018-04-16T05:16:48.149Z,23.70
2018-04-16T05:17:48.145Z,23.30
2018-04-16T05:18:48.135Z,23.60
2018-04-16T05:19:48.125Z,23.30
2018-04-16T05:20:48.127Z,22.30
2018-04-16T05:21:48.115Z,23.60
2018-04-16T05:22:48.112Z,23.20
2018-04-16T05:23:48.102Z,22.10
2018-04-16T05:24:48.089Z,22.70
2018-04-16T05:25:48.079Z,23.10
2018-04-16T05:26:48.072Z,22.50
2018-04-16T05:27:48.068Z,20.60
2018-04-16T05:28:48.060Z,21.80
2018-04-16T05:29:48.057Z,21.50
2018-04-16T05:30:48.046Z,20.80
2018-04-16T05:31:48.054Z,20.90
2018-04-16T05:32:48.027Z,19.90
2018-04-16T05:33:48.028Z,20.20
2018-04-16T05:34:48.015Z,18.60
2018-04-16T05:35:48.009Z,19.00
2018-04-16T05:36:48.003Z,18.00
2018-04-16T05:37:47.991Z,17.80
2018-04-16T05:38:47.981Z,18.50
2018-04-16T05:39:47.975Z,17.10
2018-04-16T05:40:47.966Z,17.90
2018-04-16T05:41:47.965Z,17.30
2018-04-16T05:42:47.962Z,17.40
2018-04-16T05:43:47.951Z,17.80
2018-04-16T05:44:47.944Z,16.80
2018-04-16T05:45:47.935Z,16.40
2018-04-16T05:46:47.932Z,16.50
2018-04-16T05:47:47.925Z,16.40
2018-04-16T05:48:47.911Z,16.10
2018-04-16T05:49:47.915Z,15.90
2018-04-16T05:50:47.904Z,15.60
2018-04-16T05:51:47.893Z,15.20
2018-04-16T05:52:47.885Z,14.90
2018-04-16T05:53:47.880Z,14.90
2018-04-16T05:54:47.874Z,15.30
2018-04-16T05:55:47.868Z,14.70
2018-04-16T05:56:47.862Z,14.30
2018-04-16T05:57:47.855Z,14.50
2018-04-16T05:58:47.848Z,14.60
2018-04-16T05:59:47.842Z,14.70
2018-04-16T06:00:47.830Z,13.70
2018-04-16T06:01:47.827Z,13.90
2018-04-16T06:02:47.817Z,14.20
2018-04-16T06:03:47.816Z,14.00
2018-04-16T06:04:47.805Z,14.20
2018-04-16T06:05:47.801Z,14.50
2018-04-16T06:06:47.791Z,14.20
2018-04-16T06:07:47.792Z,14.30
2018-04-16T06:08:47.778Z,14.60
2018-04-16T06:09:47.776Z,14.80
2018-04-16T06:10:47.766Z,15.00
2018-04-16T06:11:47.770Z,14.60
2018-04-16T06:12:47.759Z,14.80
2018-04-16T06:13:47.744Z,14.50
2018-04-16T06:14:47.743Z,14.00
2018-04-16T06:15:47.737Z,13.90
2018-04-16T06:16:47.730Z,14.70
2018-04-16T06:17:47.723Z,14.00
2018-04-16T06:18:47.718Z,14.40
2018-04-16T06:19:47.711Z,14.70
2018-04-16T06:20:47.705Z,14.60
2018-04-16T06:21:47.697Z,14.10
2018-04-16T06:22:47.692Z,14.00
2018-04-16T06:23:47.686Z,13.30
2018-04-16T06:24:47.679Z,14.70
2018-04-16T06:25:47.669Z,13.90
2018-04-16T06:26:47.667Z,14.20
2018-04-16T06:27:47.658Z,14.50
2018-04-16T06:28:47.660Z,14.90
2018-04-16T06:29:47.651Z,14.60
2018-04-16T06:30:47.644Z,14.90
2018-04-16T06:31:47.646Z,14.20
2018-04-16T06:32:47.630Z,15.10
2018-04-16T06:33:47.626Z,15.30
2018-04-16T06:34:47.622Z,15.50
2018-04-16T06:35:47.617Z,14.70
2018-04-16T06:36:47.616Z,15.00
2018-04-16T06:37:47.605Z,15.00
2018-04-16T06:38:47.599Z,15.00
2018-04-16T06:39:47.593Z,16.40
2018-04-16T06:40:47.588Z,15.50
2018-04-16T06:41:47.581Z,16.40
2018-04-16T06:42:47.574Z,16.40
2018-04-16T06:43:47.572Z,15.60
2018-04-16T06:44:47.566Z,16.00
2018-04-16T06:45:47.564Z,15.90
2018-04-16T06:46:47.560Z,15.20
2018-04-16T06:47:47.549Z,15.80
2018-04-16T06:48:47.542Z,15.30
2018-04-16T06:49:47.537Z,16.00
2018-04-16T06:50:47.541Z,15.90
2018-04-16T06:51:47.529Z,15.40
2018-04-16T06:52:47.522Z,16.40
2018-04-16T06:53:47.517Z,16.00
2018-04-16T06:54:47.512Z,15.50
2018-04-16T06:55:47.519Z,15.70
2018-04-16T06:56:47.501Z,15.60
2018-04-16T06:57:47.499Z,14.90
2018-04-16T06:58:47.495Z,15.90
2018-04-16T06:59:47.511Z,15.80
2018-04-16T07:00:47.498Z,16.40
2018-04-16T07:01:47.479Z,16.90
2018-04-16T07:02:47.480Z,16.60
2018-04-16T07:03:47.468Z,16.90
2018-04-16T07:04:47.479Z,17.00
2018-04-16T07:05:47.468Z,16.40
2018-04-16T07:06:47.456Z,17.10
2018-04-16T07:07:47.510Z,17.80
2018-04-16T07:08:47.533Z,18.20
2018-04-16T07:09:47.439Z,18.30
2018-04-16T07:10:47.437Z,18.50
2018-04-16T07:11:47.436Z,19.20
2018-04-16T07:12:47.428Z,18.40
2018-04-16T07:13:47.439Z,18.20
2018-04-16T07:14:47.425Z,18.00
2018-04-16T07:15:47.450Z,18.40
2018-04-16T07:16:47.430Z,18.80
2018-04-16T07:17:47.561Z,19.10
2018-04-16T07:18:47.494Z,19.00
2018-04-16T07:19:47.403Z,19.10
2018-04-16T07:20:47.396Z,20.10
2018-04-16T07:21:47.394Z,19.80
2018-04-16T07:22:47.393Z,19.40
2018-04-16T07:23:47.384Z,19.10
2018-04-16T07:24:47.382Z,18.70
2018-04-16T07:25:47.377Z,18.90
2018-04-16T07:26:47.380Z,20.10
2018-04-16T07:27:47.370Z,18.60
2018-04-16T07:28:47.365Z,18.60
2018-04-16T07:29:47.364Z,18.40
2018-04-16T07:30:47.351Z,19.10
2018-04-16T07:31:47.349Z,19.00
2018-04-16T07:32:47.346Z,19.00
2018-04-16T07:33:47.342Z,18.00
2018-04-16T07:34:47.342Z,18.30
2018-04-16T07:35:47.342Z,18.70
2018-04-16T07:36:47.333Z,17.80
2018-04-16T07:37:47.327Z,19.10
2018-04-16T07:38:47.322Z,18.70
2018-04-16T07:39:47.320Z,18.80
2018-04-16T07:40:47.318Z,18.70
2018-04-16T07:41:47.339Z,18.90
2018-04-16T07:42:47.312Z,18.40
2018-04-16T07:43:47.362Z,19.30
2018-04-16T07:44:47.306Z,18.90
2018-04-16T07:45:47.301Z,18.40
2018-04-16T07:46:47.294Z,18.20
2018-04-16T07:47:47.294Z,18.30
2018-04-16T07:48:47.288Z,18.70
2018-04-16T07:49:47.282Z,18.60
2018-04-16T07:50:47.283Z,18.00
2018-04-16T07:51:47.277Z,19.10
2018-04-16T07:52:47.295Z,17.40
2018-04-16T07:53:47.269Z,18.50
2018-04-16T07:54:47.271Z,18.00
2018-04-16T07:55:47.267Z,17.80
2018-04-16T07:56:47.265Z,18.60
2018-04-16T07:57:47.268Z,17.50
2018-04-16T07:58:47.260Z,17.40
2018-04-16T07:59:47.253Z,17.90
2018-04-16T08:00:47.249Z,18.60
2018-04-16T08:01:47.245Z,17.30
2018-04-16T08:02:47.246Z,17.30
2018-04-16T08:03:47.245Z,17.70
2018-04-16T08:04:47.243Z,17.40
2018-04-16T08:05:47.239Z,16.90
2018-04-16T08:06:47.234Z,16.40
2018-04-16T08:07:47.238Z,16.10
2018-04-16T08:08:47.239Z,15.80
2018-04-16T08:09:47.234Z,16.80
2018-04-16T08:10:47.233Z,16.50
2018-04-16T08:11:47.235Z,16.10
2018-04-16T08:12:47.231Z,15.70
2018-04-16T08:13:47.236Z,15.50
2018-04-16T08:14:47.234Z,14.90
2018-04-16T08:15:47.236Z,15.50
2018-04-16T08:16:47.238Z,15.10
2018-04-16T08:17:47.279Z,15.00
2018-04-16T08:18:47.245Z,15.40
2018-04-16T08:19:47.234Z,15.40
2018-04-16T08:20:47.236Z,15.00
2018-04-16T08:21:47.238Z,16.20
2018-04-16T08:22:47.246Z,14.90
2018-04-16T08:23:47.241Z,14.60
2018-04-16T08:24:47.246Z,15.00
2018-04-16T08:25:47.242Z,14.70
2018-04-16T08:26:47.245Z,15.40
2018-04-16T08:27:47.248Z,15.20
2018-04-16T08:28:47.252Z,16.10
2018-04-16T08:29:47.257Z,16.40
2018-04-16T08:30:47.259Z,16.40
2018-04-16T08:31:47.257Z,16.50
2018-04-16T08:32:47.261Z,16.00
2018-04-16T08:33:47.260Z,15.50
2018-04-16T08:34:47.264Z,15.90
2018-04-16T08:35:47.265Z,15.30
2018-04-16T08:36:47.271Z,16.00
2018-04-16T08:37:47.273Z,16.50
2018-04-16T08:38:47.275Z,16.90
2018-04-16T08:39:47.278Z,15.80
2018-04-16T08:40:47.278Z,15.60
2018-04-16T08:41:47.281Z,15.20
2018-04-16T08:42:47.286Z,15.50
2018-04-16T08:43:47.294Z,15.30
2018-04-16T08:44:47.295Z,14.30
2018-04-16T08:45:47.297Z,15.70
2018-04-16T08:46:47.301Z,14.80
2018-04-16T08:47:47.302Z,14.30
2018-04-16T08:48:47.307Z,15.70
2018-04-16T08:49:47.314Z,15.40
2018-04-16T08:50:47.323Z,14.80
2018-04-16T08:51:47.326Z,14.70
2018-04-16T08:52:47.329Z,14.10
2018-04-16T08:53:47.331Z,14.20
2018-04-16T08:54:47.336Z,13.20
2018-04-16T08:55:47.341Z,13.00
2018-04-16T08:56:47.346Z,12.30
2018-04-16T08:57:47.350Z,12.60
2018-04-16T08:58:47.366Z,12.30
2018-04-16T08:59:47.363Z,13.40
2018-04-16T09:00:47.375Z,12.80
2018-04-16T09:01:47.370Z,11.90
2018-04-16T09:02:47.378Z,12.50
2018-04-16T09:03:47.381Z,10.80
2018-04-16T09:04:47.391Z,10.20
2018-04-16T09:05:47.396Z,10.20
2018-04-16T09:06:47.408Z,9.90
2018-04-16T09:07:47.407Z,10.70
2018-04-16T09:08:47.429Z,10.30
2018-04-16T09:09:47.417Z,10.30
2018-04-16T09:10:47.426Z,9.50
2018-04-16T09:11:47.430Z,9.70
2018-04-16T09:12:47.434Z,10.00
2018-04-16T09:13:47.441Z,9.10
2018-04-16T09:14:47.443Z,9.70
2018-04-16T09:15:47.452Z,10.00
2018-04-16T09:16:47.461Z,9.40
2018-04-16T09:17:47.464Z,8.90
2018-04-16T09:18:47.472Z,8.90
2018-04-16T09:19:47.477Z,9.00
2018-04-16T09:20:47.479Z,8.80
2018-04-16T09:21:47.483Z,9.00
2018-04-16T09:22:47.492Z,8.50
2018-04-16T09:23:47.499Z,7.80
2018-04-16T09:24:47.507Z,7.50
2018-04-16T09:25:47.512Z,7.70
2018-04-16T09:26:47.524Z,7.20
2018-04-16T09:27:47.525Z,7.10
2018-04-16T09:28:47.528Z,7.10
2018-04-16T09:29:47.534Z,6.50
2018-04-16T09:30:47.549Z,7.30
2018-04-16T09:31:47.555Z,6.40
2018-04-16T09:32:47.565Z,6.60
2018-04-16T09:33:47.565Z,6.90
2018-04-16T09:34:47.568Z,6.30
2018-04-16T09:35:47.574Z,6.90
2018-04-16T09:36:47.579Z,7.20
2018-04-16T09:37:47.591Z,7.00
2018-04-16T09:38:47.592Z,6.60
2018-04-16T09:39:47.597Z,5.80
2018-04-16T09:40:47.599Z,6.10
2018-04-16T09:41:47.603Z,6.10
2018-04-16T09:42:47.611Z,5.80
2018-04-16T09:43:47.618Z,6.00
2018-04-16T09:44:47.623Z,5.20
2018-04-16T09:45:47.625Z,5.60
2018-04-16T09:46:47.631Z,5.20
2018-04-16T09:47:47.638Z,5.00
2018-04-16T09:48:47.638Z,5.40
2018-04-16T09:49:47.644Z,5.50
2018-04-16T09:50:47.651Z,5.10
2018-04-16T09:51:47.657Z,5.20
2018-04-16T09:52:47.658Z,5.10
2018-04-16T09:53:47.665Z,5.40
2018-04-16T09:54:47.664Z,5.70
2018-04-16T09:55:47.669Z,5.50
2018-04-16T09:56:47.673Z,5.60
2018-04-16T09:57:47.679Z,5.70
2018-04-16T09:58:47.685Z,5.50
2018-04-16T09:59:47.692Z,5.40
2018-04-16T10:00:47.691Z,5.10
2018-04-16T10:01:47.690Z,5.10
2018-04-16T10:02:47.694Z,4.90
2018-04-16T10:03:47.703Z,5.30
2018-04-16T10:04:47.708Z,5.10
2018-04-16T10:05:47.710Z,5.40
2018-04-16T10:06:47.716Z,4.90
2018-04-16T10:07:47.722Z,5.30
2018-04-16T10:08:47.729Z,5.20
2018-04-16T10:09:47.766Z,5.40
2018-04-16T10:10:47.729Z,5.50
2018-04-16T10:11:47.737Z,4.80
2018-04-16T10:12:47.740Z,5.50
2018-04-16T10:13:47.746Z,5.40
2018-04-16T10:14:47.753Z,5.20
2018-04-16T10:15:47.752Z,4.70
2018-04-16T10:16:47.756Z,5.30
2018-04-16T10:17:47.765Z,5.20
2018-04-16T10:18:47.769Z,5.00
2018-04-16T10:19:47.775Z,4.70
2018-04-16T10:20:47.779Z,5.20
2018-04-16T10:21:47.781Z,5.00
2018-04-16T10:22:47.788Z,4.70
2018-04-16T10:23:47.798Z,4.90
2018-04-16T10:24:47.802Z,4.70
2018-04-16T10:25:47.808Z,4.50
2018-04-16T10:26:47.815Z,4.30
2018-04-16T10:27:47.821Z,4.40
2018-04-16T10:28:47.856Z,4.10
2018-04-16T10:29:47.834Z,4.80
2018-04-16T10:30:47.840Z,5.10
2018-04-16T10:31:47.852Z,4.80
2018-04-16T10:32:47.859Z,5.00
2018-04-16T10:33:47.867Z,4.60
2018-04-16T10:34:47.872Z,4.80
2018-04-16T10:35:47.875Z,4.40
2018-04-16T10:36:47.883Z,5.00
2018-04-16T10:37:47.889Z,4.80
2018-04-16T10:38:47.900Z,4.80
2018-04-16T10:39:47.921Z,5.40
2018-04-16T10:40:47.928Z,4.80
2018-04-16T10:41:47.913Z,4.50
2018-04-16T10:42:47.920Z,4.80
2018-04-16T10:43:47.927Z,5.00
2018-04-16T10:44:47.931Z,4.70
2018-04-16T10:45:47.939Z,5.00
2018-04-16T10:46:47.988Z,4.80
2018-04-16T10:47:47.955Z,4.90
2018-04-16T10:48:47.959Z,4.50
2018-04-16T10:49:47.959Z,4.20
2018-04-16T10:50:47.962Z,4.10
2018-04-16T10:51:47.969Z,4.80
2018-04-16T10:52:47.975Z,4.30
2018-04-16T10:53:47.975Z,4.50
2018-04-16T10:54:47.979Z,4.50
2018-04-16T10:55:47.984Z,4.80
2018-04-16T10:56:47.993Z,5.00
2018-04-16T10:57:48.017Z,4.80
2018-04-16T10:58:48.006Z,4.80
2018-04-16T10:59:48.007Z,5.10
2018-04-16T11:00:48.011Z,4.50
2018-04-16T11:01:48.016Z,5.20
2018-04-16T11:02:48.024Z,5.50
2018-04-16T11:03:48.031Z,5.50
2018-04-16T11:04:48.038Z,5.20
2018-04-16T11:05:48.043Z,5.80
2018-04-16T11:06:48.048Z,5.80
2018-04-16T11:07:48.058Z,5.80
2018-04-16T11:08:48.061Z,5.70
2018-04-16T11:09:48.061Z,5.90
2018-04-16T11:10:48.068Z,6.00
2018-04-16T11:11:48.082Z,6.00
2018-04-16T11:12:48.089Z,5.90
2018-04-16T11:13:48.091Z,5.70
2018-04-16T11:14:48.098Z,6.30
2018-04-16T11:15:48.101Z,6.00
2018-04-16T11:16:48.107Z,6.50
2018-04-16T11:17:48.113Z,6.10
2018-04-16T11:18:48.121Z,6.10
2018-04-16T11:19:48.127Z,6.60
2018-04-16T11:20:48.137Z,6.50
2018-04-16T11:21:48.139Z,6.40
2018-04-16T11:22:48.148Z,6.90
2018-04-16T11:23:48.155Z,7.00
2018-04-16T11:24:48.162Z,6.70
2018-04-16T11:25:48.166Z,7.00
2018-04-16T11:26:48.175Z,7.50
2018-04-16T11:27:48.180Z,7.30
2018-04-16T11:28:48.181Z,7.60
2018-04-16T11:29:48.186Z,7.40
2018-04-16T11:30:48.192Z,7.10
2018-04-16T11:31:48.201Z,7.20
2018-04-16T11:32:48.204Z,8.40
2018-04-16T11:33:48.249Z,8.40
2018-04-16T11:34:48.211Z,8.20
2018-04-16T11:35:48.214Z,8.10
2018-04-16T11:36:48.217Z,8.50
2018-04-16T11:37:48.224Z,7.50
2018-04-16T11:38:48.229Z,6.80
2018-04-16T11:39:48.238Z,6.20
2018-04-16T11:40:48.240Z,6.40
2018-04-16T11:41:48.250Z,6.80
2018-04-16T11:42:48.254Z,6.80
2018-04-16T11:43:48.258Z,7.40
2018-04-16T11:44:48.265Z,7.80
2018-04-16T11:45:48.274Z,8.00
2018-04-16T11:46:48.281Z,8.50
2018-04-16T11:47:48.288Z,9.20
2018-04-16T11:48:48.290Z,9.60
2018-04-16T11:49:48.296Z,9.20
2018-04-16T11:50:48.383Z,9.10
2018-04-16T11:51:48.319Z,9.00
2018-04-16T11:52:48.314Z,8.10
2018-04-16T11:53:48.318Z,7.10
2018-04-16T11:54:48.323Z,6.50
2018-04-16T11:55:48.342Z,6.90
2018-04-16T11:56:48.336Z,6.40
2018-04-16T11:57:48.344Z,6.70
2018-04-16T11:58:48.351Z,7.50
2018-04-16T11:59:48.375Z,7.90
2018-04-16T12:00:48.363Z,8.80
2018-04-16T12:01:48.368Z,8.80
2018-04-16T12:02:48.373Z,8.30
2018-04-16T12:03:48.377Z,8.00
2018-04-16T12:04:48.385Z,7.90
2018-04-16T12:05:48.396Z,7.00
2018-04-16T12:06:48.400Z,6.80
2018-04-16T12:07:48.406Z,8.40
2018-04-16T12:08:48.414Z,8.70
2018-04-16T12:09:48.415Z,8.90
2018-04-16T12:10:48.422Z,7.90
2018-04-16T12:11:48.431Z,8.30
2018-04-16T12:12:48.440Z,7.90
2018-04-16T12:13:48.446Z,8.10
2018-04-16T12:14:48.452Z,7.90
2018-04-16T12:15:48.497Z,7.80
2018-04-16T12:16:48.465Z,7.00
2018-04-16T12:17:48.473Z,7.80
2018-04-16T12:18:48.485Z,7.10
2018-04-16T12:19:48.493Z,6.30
2018-04-16T12:20:48.497Z,7.00
2018-04-16T12:21:48.506Z,7.00
2018-04-16T12:22:48.605Z,7.30
2018-04-16T12:23:48.528Z,7.30
2018-04-16T12:24:48.525Z,7.10
2018-04-16T12:25:48.536Z,7.90
2018-04-16T12:26:48.545Z,7.90
2018-04-16T12:27:48.602Z,8.00
2018-04-16T12:28:48.565Z,7.30
2018-04-16T12:29:48.604Z,8.20
2018-04-16T12:30:48.576Z,7.90
2018-04-16T12:31:48.583Z,7.70
2018-04-16T12:32:48.654Z,7.60
2018-04-16T12:33:48.600Z,7.20
2018-04-16T12:34:48.609Z,6.70
2018-04-16T12:35:48.624Z,7.20
2018-04-16T12:36:48.616Z,6.60
2018-04-16T12:37:48.624Z,6.60
2018-04-16T12:38:48.629Z,6.80
2018-04-16T12:39:48.635Z,6.40
2018-04-16T12:40:48.648Z,6.60
2018-04-16T12:41:48.651Z,6.90
2018-04-16T12:42:48.658Z,7.20
2018-04-16T12:43:48.689Z,7.50
2018-04-16T12:44:48.742Z,7.40
2018-04-16T12:45:48.673Z,8.30
2018-04-16T12:46:48.677Z,8.00
2018-04-16T12:47:48.688Z,7.70
2018-04-16T12:48:48.692Z,7.90
2018-04-16T12:49:48.698Z,8.00
2018-04-16T12:50:48.699Z,7.00
2018-04-16T12:51:48.707Z,7.20
2018-04-16T12:52:48.714Z,6.90
2018-04-16T12:53:48.718Z,7.20
2018-04-16T12:54:48.727Z,6.20
2018-04-16T12:55:48.730Z,6.60
2018-04-16T12:56:48.733Z,6.80
2018-04-16T12:57:48.748Z,7.00
2018-04-16T12:58:48.740Z,7.10
2018-04-16T12:59:48.747Z,6.80
2018-04-16T13:00:48.752Z,6.60
2018-04-16T13:01:48.755Z,6.90
2018-04-16T13:02:48.761Z,6.40
2018-04-16T13:03:48.765Z,6.80
2018-04-16T13:04:48.764Z,6.70
2018-04-16T13:05:48.773Z,6.90
2018-04-16T13:06:48.783Z,7.10
2018-04-16T13:07:48.792Z,7.70
2018-04-16T13:08:48.784Z,8.20
2018-04-16T13:09:48.795Z,8.10
2018-04-16T13:10:48.813Z,8.10
2018-04-16T13:11:48.796Z,7.50
2018-04-16T13:12:48.804Z,8.10
2018-04-16T13:13:48.804Z,8.80
2018-04-16T13:14:48.812Z,8.80
2018-04-16T13:15:48.817Z,8.80
2018-04-16T13:16:48.819Z,8.70
2018-04-16T13:17:48.820Z,7.30
2018-04-16T13:18:48.827Z,7.00
2018-04-16T13:19:48.828Z,6.90
2018-04-16T13:20:48.834Z,6.40
2018-04-16T13:21:48.840Z,7.00
2018-04-16T13:22:48.842Z,6.60